Time;durP1;ratioP1;P1;durP2;ratioP2;P2;SDS_P1;SDS_P2;PMS_P1;PMS_P2;Temp;Humidity;BMP_temperature;BMP_pressure;BME280_temperature;BME280_humidity;BME280_pressure;Samples;Min_cycle;Max_cycle;Signal;HPM_P1;HPM_P2
2022/02/18 00:00:44;;;;;;;12.63;2.60;;;;;;;;;;5033764;28;20985;-91
2022/02/18 00:03:13;;;;;;;12.73;2.77;;;7.70;99.90;;;;;;5035631;28;20456;-90
2022/02/18 00:05:40;;;;;;;12.03;2.63;;;;;;;;;;5032521;28;20497;-93
2022/02/18 00:08:07;;;;;;;12.23;2.73;;;;;;;;;;5025038;28;20463;-93
2022/02/18 00:10:35;;;;;;;14.70;2.73;;;7.70;99.90;;;;;;5011753;28;20475;-90
2022/02/18 00:13:02;;;;;;;15.53;3.80;;;;;;;;;;5012639;28;20441;-91
2022/02/18 00:15:33;;;;;;;10.70;3.13;;;;;;;;;;5014407;28;20449;-91
2022/02/18 00:18:12;;;;;;;7.87;1.77;;;;;;;;;;5014611;28;20448;-92
2022/02/18 00:20:40;;;;;;;11.07;2.07;;;;;;;;;;5014386;28;20951;-91
2022/02/18 00:23:12;;;;;;;13.93;2.73;;;7.80;99.90;;;;;;5015299;28;20523;-93
2022/02/18 00:25:42;;;;;;;12.63;3.40;;;;;;;;;;5013906;28;20495;-91
2022/02/18 00:28:09;;;;;;;12.87;2.73;;;;;;;;;;5014383;28;20444;-91
2022/02/18 00:30:36;;;;;;;7.97;2.27;;;;;;;;;;5014627;28;20825;-91
2022/02/18 00:33:04;;;;;;;4.40;1.17;;;;;;;;;;5014851;28;20445;-91
2022/02/18 00:35:32;;;;;;;15.23;2.80;;;7.80;99.90;;;;;;5013805;28;21129;-89
2022/02/18 00:38:00;;;;;;;13.90;3.07;;;7.80;99.90;;;;;;5010490;28;20459;-90
2022/02/18 00:40:28;;;;;;;9.37;2.60;;;6.70;99.90;;;;;;5014165;28;20464;-91
2022/02/18 00:42:55;;;;;;;14.50;2.83;;;7.90;99.90;;;;;;5014516;28;20463;-90
2022/02/18 00:45:22;;;;;;;11.20;2.83;;;;;;;;;;5013830;28;20484;-89
2022/02/18 00:47:50;;;;;;;20.70;3.50;;;;;;;;;;5012958;28;20447;-89
2022/02/18 00:50:18;;;;;;;12.13;2.53;;;7.90;99.90;;;;;;5013266;28;20452;-91
2022/02/18 00:52:45;;;;;;;12.10;2.43;;;;;;;;;;5012360;28;20488;-91
2022/02/18 00:55:14;;;;;;;10.73;3.20;;;7.80;99.90;;;;;;5013435;28;20543;-90
2022/02/18 00:57:43;;;;;;;18.27;2.70;;;;;;;;;;5014236;28;20448;-92
2022/02/18 01:00:12;;;;;;;11.27;2.90;;;7.80;99.90;;;;;;5014832;28;20467;-89
2022/02/18 01:02:45;;;;;;;14.10;4.07;;;7.90;99.90;;;;;;5014438;28;20527;-90
2022/02/18 01:05:13;;;;;;;11.53;2.60;;;;;;;;;;5017768;28;20991;-91
2022/02/18 01:07:40;;;;;;;13.60;2.47;;;;;;;;;;5017313;28;20444;-89
2022/02/18 01:10:08;;;;;;;10.50;2.70;;;7.40;99.90;;;;;;5016041;28;20456;-93
2022/02/18 01:12:37;;;;;;;12.60;4.20;;;7.90;99.90;;;;;;5013427;28;21024;-90
2022/02/18 01:15:06;;;;;;;12.77;2.90;;;8.00;99.90;;;;;;5012610;28;20472;-92
2022/02/18 01:17:36;;;;;;;12.40;3.63;;;7.90;99.90;;;;;;5013784;28;20456;-92
2022/02/18 01:20:06;;;;;;;13.87;3.70;;;7.90;99.90;;;;;;5010219;28;20452;-89
2022/02/18 01:22:33;;;;;;;11.07;2.33;;;;;;;;;;5013173;28;20441;-90
2022/02/18 01:25:00;;;;;;;22.00;4.13;;;;;;;;;;5014004;28;20479;-91
2022/02/18 01:27:27;;;;;;;21.50;3.27;;;;;;;;;;5013935;28;20449;-88
2022/02/18 01:29:55;;;;;;;17.27;3.93;;;7.90;99.90;;;;;;5013989;28;20460;-92
2022/02/18 01:32:22;;;;;;;9.83;2.23;;;;;;;;;;5014104;28;20939;-92
2022/02/18 01:34:50;;;;;;;13.37;2.80;;;;;;;;;;5013952;28;20452;-91
2022/02/18 01:37:17;;;;;;;11.50;2.50;;;;;;;;;;5017398;28;20476;-91
2022/02/18 01:39:44;;;;;;;13.53;3.10;;;;;;;;;;5019330;28;20457;-89
2022/02/18 01:42:11;;;;;;;14.00;2.10;;;;;;;;;;5017688;28;20924;-91
2022/02/18 01:44:40;;;;;;;13.23;3.57;;;7.80;99.90;;;;;;5017844;28;20484;-92
2022/02/18 01:47:13;;;;;;;11.70;3.27;;;7.80;99.90;;;;;;5015013;28;20448;-89
2022/02/18 01:49:40;;;;;;;17.57;2.83;;;;;;;;;;5018036;28;20448;-90
2022/02/18 01:52:08;;;;;;;8.10;1.93;;;7.80;99.90;;;;;;5017102;28;20515;-92
2022/02/18 01:54:35;;;;;;;9.47;2.77;;;;;;;;;;5017362;28;20480;-91
2022/02/18 01:57:03;;;;;;;14.30;2.70;;;;;;;;;;5017869;28;20442;-91
2022/02/18 01:59:30;;;;;;;10.80;2.50;;;;;;;;;;5017314;28;20444;-88
2022/02/18 02:01:58;;;;;;;16.17;3.00;;;;;;;;;;5017148;28;20444;-91
2022/02/18 02:04:27;;;;;;;7.00;1.90;;;;;;;;;;5017415;28;20854;-89
2022/02/18 02:06:54;;;;;;;12.07;2.23;;;;;;;;;;5016858;28;20459;-90
2022/02/18 02:09:21;;;;;;;12.93;3.30;;;;;;;;;;5017323;28;20447;-91
2022/02/18 02:11:49;;;;;;;17.20;3.00;;;;;;;;;;5018420;28;20468;-93
2022/02/18 02:14:16;;;;;;;10.63;2.57;;;;;;;;;;5017233;28;20448;-90
2022/02/18 02:16:43;;;;;;;6.67;2.37;;;;;;;;;;5017082;28;20451;-91
2022/02/18 02:19:10;;;;;;;12.63;2.73;;;;;;;;;;5017351;28;20452;-90
2022/02/18 02:21:38;;;;;;;24.63;3.60;;;7.70;99.90;;;;;;5016318;28;20845;-93
2022/02/18 02:24:07;;;;;;;9.87;1.90;;;7.90;99.90;;;;;;5017094;28;20445;-89
2022/02/18 02:26:35;;;;;;;7.60;2.77;;;;;;;;;;5017082;28;20490;-89
2022/02/18 02:29:03;;;;;;;11.80;2.40;;;;;;;;;;5016553;28;20437;-91
2022/02/18 02:31:30;;;;;;;7.53;2.40;;;;;;;;;;5016762;28;20534;-92
2022/02/18 02:33:57;;;;;;;15.50;2.57;;;;;;;;;;5016794;28;20480;-91
2022/02/18 02:36:24;;;;;;;12.77;2.37;;;;;;;;;;5015798;28;20469;-90
2022/02/18 02:38:51;;;;;;;10.90;2.70;;;;;;;;;;5016950;28;20433;-91
2022/02/18 02:41:20;;;;;;;10.63;2.50;;;7.60;99.90;;;;;;5016887;28;20841;-90
2022/02/18 02:43:47;;;;;;;15.10;2.93;;;;;;;;;;5016388;28;20490;-90
2022/02/18 02:46:14;;;;;;;7.47;2.10;;;;;;;;;;5016634;28;20518;-90
2022/02/18 02:48:41;;;;;;;8.80;1.63;;;;;;;;;;5015765;28;20457;-90
2022/02/18 02:51:09;;;;;;;10.90;2.60;;;;;;;;;;5015648;28;20476;-90
2022/02/18 02:53:36;;;;;;;8.00;2.23;;;7.50;99.90;;;;;;5016578;28;20475;-89
2022/02/18 02:56:03;;;;;;;5.30;1.97;;;;;;;;;;5016443;28;20448;-89
2022/02/18 02:58:32;;;;;;;8.33;2.77;;;7.50;99.90;;;;;;5016408;28;20934;-90
2022/02/18 03:00:59;;;;;;;9.50;2.10;;;;;;;;;;5014782;28;20448;-92
2022/02/18 03:03:26;;;;;;;8.33;2.10;;;;;;;;;;5016608;28;20855;-91
2022/02/18 03:05:53;;;;;;;13.93;3.03;;;;;;;;;;5015263;28;20990;-91
2022/02/18 03:08:20;;;;;;;12.57;2.97;;;;;;;;;;5016096;28;20446;-89
2022/02/18 03:11:14;;;;;;;11.60;2.87;;;;;;;;;;5016940;28;20471;-92
2022/02/18 03:13:38;;;;;;;2.10;0.73;;;7.50;99.90;;;;;;5015864;28;20523;-90
2022/02/18 03:16:05;;;;;;;7.90;2.40;;;7.70;99.90;;;;;;5016101;28;20437;-89
2022/02/18 03:18:32;;;;;;;12.50;3.10;;;;;;;;;;5016011;28;20456;-89
2022/02/18 03:20:59;;;;;;;9.90;2.70;;;;;;;;;;5015471;28;20452;-92
2022/02/18 03:23:27;;;;;;;11.53;2.63;;;;;;;;;;5015633;28;20440;-90
2022/02/18 03:25:55;;;;;;;14.17;2.10;;;;;;;;;;5016035;28;20486;-89
2022/02/18 03:28:22;;;;;;;12.43;2.53;;;;;;;;;;5016464;28;20442;-92
2022/02/18 03:30:50;;;;;;;9.67;2.63;;;7.30;99.90;;;;;;5015571;28;20463;-89
2022/02/18 03:33:17;;;;;;;5.73;2.27;;;;;;;;;;5015712;28;20920;-90
2022/02/18 03:35:45;;;;;;;11.57;2.63;;;;;;;;;;5015411;28;20481;-89
2022/02/18 03:38:12;;;;;;;13.50;2.30;;;;;;;;;;5015403;28;20983;-90
2022/02/18 03:40:39;;;;;;;12.00;2.73;;;;;;;;;;5015286;28;20460;-90
2022/02/18 03:43:08;;;;;;;15.43;2.90;;;;;;;;;;5015462;28;20445;-90
2022/02/18 03:45:35;;;;;;;8.70;2.80;;;;;;;;;;5015532;28;20481;-90
2022/02/18 03:48:04;;;;;;;8.30;2.07;;;7.30;99.90;;;;;;5015440;28;20451;-90
2022/02/18 03:50:31;;;;;;;12.17;2.30;;;;;;;;;;5014170;28;20960;-91
2022/02/18 03:52:58;;;;;;;9.23;2.90;;;;;;;;;;5015332;28;20488;-89
2022/02/18 03:55:25;;;;;;;13.63;2.50;;;;;;;;;;5015313;28;20841;-92
2022/02/18 03:57:52;;;;;;;7.77;2.17;;;;;;;;;;5014748;28;20952;-90
2022/02/18 04:00:20;;;;;;;13.17;2.83;;;;;;;;;;5015476;28;20464;-91
2022/02/18 04:02:47;;;;;;;10.97;2.40;;;;;;;;;;5015212;28;20456;-90
2022/02/18 04:05:15;;;;;;;10.73;2.23;;;7.00;99.90;;;;;;5014879;28;20456;-91
2022/02/18 04:07:42;;;;;;;5.30;1.60;;;;;;;;;;5013155;28;20441;-90
2022/02/18 04:10:09;;;;;;;7.23;2.20;;;;;;;;;;5011973;28;20448;-92
2022/02/18 04:12:37;;;;;;;6.03;2.30;;;;;;;;;;5015276;28;20432;-92
2022/02/18 04:15:04;;;;;;;9.00;2.70;;;;;;;;;;5014843;28;20449;-89
2022/02/18 04:17:32;;;;;;;12.83;2.47;;;;;;;;;;5014885;28;20448;-90
2022/02/18 04:19:59;;;;;;;9.87;2.20;;;;;;;;;;5014758;28;20896;-92
2022/02/18 04:22:27;;;;;;;11.17;2.53;;;7.20;99.90;;;;;;5014026;28;20456;-90
2022/02/18 04:24:54;;;;;;;9.07;1.90;;;;;;;;;;5014653;28;20448;-90
2022/02/18 04:27:22;;;;;;;8.47;2.27;;;;;;;;;;5014433;28;20858;-90
2022/02/18 04:29:49;;;;;;;7.80;2.10;;;;;;;;;;5014547;28;20440;-91
2022/02/18 04:32:16;;;;;;;13.27;2.40;;;;;;;;;;5014534;28;20448;-89
2022/02/18 04:34:43;;;;;;;14.53;3.27;;;;;;;;;;5014320;28;20472;-89
2022/02/18 04:37:10;;;;;;;15.70;2.53;;;;;;;;;;5014904;28;20456;-90
2022/02/18 04:39:38;;;;;;;16.13;2.37;;;7.20;99.90;;;;;;5014608;28;20445;-92
2022/02/18 04:42:05;;;;;;;6.20;1.57;;;7.30;99.90;;;;;;5014487;28;20817;-91
2022/02/18 04:44:33;;;;;;;9.83;4.03;;;;;;;;;;5012849;28;20919;-92
2022/02/18 04:47:00;;;;;;;12.63;2.67;;;;;;;;;;5014259;28;20496;-89
2022/02/18 04:49:27;;;;;;;13.20;3.13;;;;;;;;;;5014718;28;20448;-92
2022/02/18 04:51:55;;;;;;;11.30;2.80;;;;;;;;;;5013601;28;20452;-92
2022/02/18 04:54:23;;;;;;;9.93;2.13;;;;;;;;;;5014362;28;20487;-90
2022/02/18 04:56:53;;;;;;;12.10;2.63;;;7.30;99.90;;;;;;5014430;28;20459;-90
2022/02/18 04:59:20;;;;;;;21.73;3.23;;;;;;;;;;5011696;28;20448;-90
2022/02/18 05:01:47;;;;;;;7.27;2.47;;;;;;;;;;5014008;28;20456;-89
2022/02/18 05:04:14;;;;;;;15.43;2.73;;;;;;;;;;5013898;28;20788;-90
2022/02/18 05:06:41;;;;;;;8.93;2.37;;;;;;;;;;5012867;28;20495;-89
2022/02/18 05:09:10;;;;;;;6.80;1.80;;;;;;;;;;5013897;28;20432;-91
2022/02/18 05:11:38;;;;;;;13.50;3.77;;;;;;;;;;5013904;28;20445;-90
2022/02/18 05:14:06;;;;;;;9.73;3.43;;;7.40;99.90;;;;;;5015092;28;20463;-93
2022/02/18 05:16:33;;;;;;;12.07;2.77;;;;;;;;;;5013867;28;20464;-93
2022/02/18 05:19:01;;;;;;;7.93;2.40;;;;;;;;;;5013600;28;21005;-90
2022/02/18 05:21:28;;;;;;;13.80;2.63;;;;;;;;;;5012883;28;20494;-92
2022/02/18 05:23:55;;;;;;;12.90;1.87;;;;;;;;;;5013934;28;20451;-93
2022/02/18 05:26:22;;;;;;;5.33;1.50;;;;;;;;;;5013694;28;20854;-90
2022/02/18 05:28:49;;;;;;;12.30;3.33;;;;;;;;;;5013522;28;20445;-90
2022/02/18 05:31:18;;;;;;;11.33;2.60;;;7.40;99.90;;;;;;5014182;28;20465;-90
2022/02/18 05:33:45;;;;;;;7.60;2.80;;;;;;;;;;5014159;28;20457;-89
2022/02/18 05:36:12;;;;;;;10.93;1.90;;;;;;;;;;5013106;28;20488;-90
2022/02/18 05:38:43;;;;;;;8.57;2.50;;;;;;;;;;5013916;28;20474;-89
2022/02/18 05:41:10;;;;;;;12.37;2.30;;;;;;;;;;5014087;28;20891;-90
2022/02/18 05:43:37;;;;;;;10.30;2.90;;;;;;;;;;5014020;28;20447;-90
2022/02/18 05:46:04;;;;;;;10.83;3.17;;;;;;;;;;5014116;28;20471;-91
2022/02/18 05:48:33;;;;;;;11.20;2.37;;;7.50;99.90;;;;;;5012704;28;20503;-89
2022/02/18 05:51:01;;;;;;;10.90;3.13;;;7.50;99.90;;;;;;5012797;28;20453;-92
2022/02/18 05:53:28;;;;;;;10.90;2.50;;;;;;;;;;5013400;28;20543;-88
2022/02/18 05:55:55;;;;;;;11.17;2.47;;;;;;;;;;5013574;28;20437;-87
2022/02/18 05:58:23;;;;;;;8.37;1.90;;;;;;;;;;5013838;28;20447;-89
2022/02/18 06:00:50;;;;;;;12.07;3.10;;;;;;;;;;5013718;28;20440;-90
2022/02/18 06:03:17;;;;;;;8.87;2.20;;;;;;;;;;5013848;28;20448;-89
2022/02/18 06:05:45;;;;;;;13.73;2.70;;;;;;;;;;5012276;28;20966;-90
2022/02/18 06:08:12;;;;;;;6.83;2.23;;;;;;;;;;5013688;28;20456;-89
2022/02/18 06:10:40;;;;;;;11.70;2.33;;;;;;;;;;5013332;28;20455;-89
2022/02/18 06:13:07;;;;;;;11.27;3.23;;;;;;;;;;5013550;28;20456;-91
2022/02/18 06:15:34;;;;;;;3.90;1.10;;;;;;;;;;5013630;28;20448;-89
2022/02/18 06:18:01;;;;;;;7.37;2.10;;;;;;;;;;5013566;28;20475;-90
2022/02/18 06:20:28;;;;;;;13.60;3.03;;;;;;;;;;5012027;28;20448;-89
2022/02/18 06:22:57;;;;;;;10.10;2.63;;;7.90;99.90;;;;;;5014941;28;20452;-91
2022/02/18 06:25:24;;;;;;;14.23;2.80;;;;;;;;;;5016965;28;20452;-89
2022/02/18 06:27:51;;;;;;;10.87;2.37;;;;;;;;;;5016891;28;20519;-91
2022/02/18 06:30:18;;;;;;;11.10;2.50;;;;;;;;;;5016822;28;20448;-89
2022/02/18 06:32:46;;;;;;;8.97;2.60;;;;;;;;;;5017391;28;20827;-90
2022/02/18 06:35:13;;;;;;;10.93;2.30;;;;;;;;;;5017697;28;21000;-90
2022/02/18 06:37:40;;;;;;;9.30;1.70;;;;;;;;;;5018195;28;20464;-90
2022/02/18 06:40:10;;;;;;;8.37;1.97;;;8.00;99.90;;;;;;5017827;28;20911;-92
2022/02/18 06:42:41;;;;;;;12.60;2.73;;;;;;;;;;5012464;28;20471;-90
2022/02/18 06:45:09;;;;;;;7.60;2.60;;;8.20;99.90;;;;;;5011139;28;20511;-89
2022/02/18 06:47:36;;;;;;;10.33;3.47;;;;;;;;;;5015414;28;20499;-91
2022/02/18 06:50:04;;;;;;;10.10;2.67;;;;;;;;;;5015617;28;20445;-91
2022/02/18 06:52:31;;;;;;;8.60;3.60;;;;;;;;;;5014643;28;20983;-90
2022/02/18 06:55:03;;;;;;;15.80;4.50;;;;;;;;;;5016715;28;20451;-92
2022/02/18 06:57:31;;;;;;;18.93;9.67;;;8.20;99.90;;;;;;5016739;28;20563;-90
2022/02/18 06:59:58;;;;;;;11.43;3.40;;;;;;;;;;5016954;28;20453;-89
2022/02/18 07:02:26;;;;;;;7.60;3.33;;;;;;;;;;5017486;28;20448;-94
2022/02/18 07:04:53;;;;;;;13.60;6.13;;;;;;;;;;5018366;28;20560;-90
2022/02/18 07:07:20;;;;;;;11.50;3.60;;;;;;;;;;5017345;28;20488;-92
2022/02/18 07:09:47;;;;;;;14.97;5.00;;;;;;;;;;5016657;28;20923;-93
2022/02/18 07:12:14;;;;;;;10.23;5.17;;;;;;;;;;5017015;28;20527;-91
2022/02/18 07:14:43;;;;;;;23.13;12.33;;;;;;;;;;5016416;28;20444;-90
2022/02/18 07:17:10;;;;;;;20.37;6.90;;;;;;;;;;5016007;28;20452;-88
2022/02/18 07:19:37;;;;;;;5.53;2.27;;;;;;;;;;5018527;28;20452;-88
2022/02/18 07:22:04;;;;;;;11.63;3.10;;;;;;;;;;5015722;28;20449;-87
2022/02/18 07:24:32;;;;;;;12.77;4.50;;;;;;;;;;5020647;28;20445;-89
2022/02/18 07:26:59;;;;;;;9.40;1.73;;;;;;;;;;5022249;28;20502;-90
2022/02/18 07:29:26;;;;;;;5.57;2.57;;;8.60;99.90;;;;;;5021769;28;20540;-89
2022/02/18 07:31:54;;;;;;;7.53;2.50;;;8.70;99.90;;;;;;5022215;28;20445;-92
2022/02/18 07:34:22;;;;;;;4.10;1.90;;;;;;;;;;5018315;28;20499;-92
2022/02/18 07:36:49;;;;;;;6.47;2.33;;;;;;;;;;5016161;28;20469;-91
2022/02/18 07:39:16;;;;;;;5.67;1.80;;;;;;;;;;5018019;28;20433;-94
2022/02/18 07:41:43;;;;;;;8.67;3.73;;;;;;;;;;5018442;28;20452;-89
2022/02/18 07:44:10;;;;;;;3.10;1.80;;;;;;;;;;5019207;28;20460;-90
2022/02/18 07:46:37;;;;;;;6.47;2.40;;;;;;;;;;5017498;28;20488;-90
2022/02/18 07:49:05;;;;;;;11.53;4.47;;;9.00;99.90;;;;;;5036912;28;20451;-90
2022/02/18 07:51:32;;;;;;;12.90;4.10;;;;;;;;;;5031855;28;20444;-91
2022/02/18 07:53:59;;;;;;;4.60;2.30;;;;;;;;;;5015023;28;20933;-90
2022/02/18 07:56:26;;;;;;;8.60;2.00;;;;;;;;;;5015014;28;20535;-89
2022/02/18 07:58:53;;;;;;;9.13;2.80;;;;;;;;;;5014747;28;20448;-88
2022/02/18 08:01:20;;;;;;;8.83;2.03;;;;;;;;;;5014790;28;20475;-89
2022/02/18 08:03:49;;;;;;;6.13;0.93;;;;;;;;;;5014912;28;20455;-88
2022/02/18 08:06:18;;;;;;;15.50;1.90;;;9.30;99.90;;;;;;5013421;28;20875;-87
2022/02/18 08:08:46;;;;;;;6.80;1.80;;;;;;;;;;5014713;28;20959;-89
2022/02/18 08:11:14;;;;;;;3.90;1.70;;;9.40;99.90;;;;;;5014536;28;20463;-91
2022/02/18 08:13:42;;;;;;;6.43;1.83;;;;;;;;;;5014857;28;20452;-90
2022/02/18 08:16:09;;;;;;;5.97;2.53;;;;;;;;;;5014858;28;20463;-88
2022/02/18 08:18:37;;;;;;;2.70;1.30;;;;;;;;;;5014382;28;20441;-88
2022/02/18 08:21:04;;;;;;;5.40;2.40;;;;;;;;;;5014034;28;20452;-88
2022/02/18 08:23:32;;;;;;;7.07;1.93;;;9.80;99.90;;;;;;5014786;28;20472;-87
2022/02/18 08:26:00;;;;;;;6.53;1.87;;;;;;;;;;5014604;28;20452;-87
2022/02/18 08:28:27;;;;;;;5.10;2.20;;;;;;;;;;5014395;28;20492;-90
2022/02/18 08:30:54;;;;;;;5.97;1.70;;;;;;;;;;5016836;28;20464;-88
2022/02/18 08:33:21;;;;;;;6.60;2.87;;;;;;;;;;5014075;28;20461;-88
2022/02/18 08:35:48;;;;;;;6.27;2.10;;;;;;;;;;5013702;28;20472;-89
2022/02/18 08:38:15;;;;;;;5.60;2.30;;;;;;;;;;5013931;28;20472;-88
2022/02/18 08:40:43;;;;;;;6.57;2.63;;;10.20;99.90;;;;;;5015505;28;20445;-88
2022/02/18 08:43:11;;;;;;;5.40;2.20;;;;;;;;;;5013470;28;20453;-90
2022/02/18 08:45:38;;;;;;;3.53;1.47;;;;;;;;;;5016710;28;20460;-91
2022/02/18 08:48:05;;;;;;;3.03;1.00;;;;;;;;;;5012251;28;20484;-90
2022/02/18 08:50:33;;;;;;;18.50;7.93;;;;;;;;;;5016455;28;20437;-89
2022/02/18 08:53:00;;;;;;;18.83;9.43;;;;;;;;;;5017795;28;20906;-92
2022/02/18 08:55:27;;;;;;;6.33;4.03;;;;;;;;;;5014620;28;20451;-91
2022/02/18 08:57:57;;;;;;;4.00;1.60;;;10.50;99.90;;;;;;5017092;28;20519;-89
2022/02/18 09:00:25;;;;;;;17.53;9.60;;;10.60;99.90;;;;;;5012856;28;20498;-90
2022/02/18 09:02:52;;;;;;;7.63;3.77;;;;;;;;;;5015002;28;20429;-92
2022/02/18 09:05:19;;;;;;;1.80;0.97;;;;;;;;;;5016304;28;20445;-91
2022/02/18 09:07:46;;;;;;;9.30;4.40;;;;;;;;;;5016232;28;20480;-88
2022/02/18 09:10:14;;;;;;;3.93;3.07;;;;;;;;;;5013728;28;20472;-88
2022/02/18 09:12:41;;;;;;;5.83;1.00;;;;;;;;;;5013440;28;20474;-89
2022/02/18 09:15:12;;;;;;;7.13;2.43;;;11.50;99.90;;;;;;5016825;28;20480;-90
2022/02/18 09:17:40;;;;;;;3.10;1.30;;;;;;;;;;5014280;28;20456;-89
2022/02/18 09:20:08;;;;;;;2.40;2.03;;;11.40;99.90;;;;;;5013639;28;20456;-89
2022/02/18 09:22:36;;;;;;;5.27;2.20;;;;;;;;;;5013501;28;20460;-92
2022/02/18 09:25:03;;;;;;;9.93;2.30;;;;;;;;;;5014789;28;20452;-90
2022/02/18 09:27:30;;;;;;;3.60;2.97;;;;;;;;;;5014618;28;20499;-91
2022/02/18 09:30:00;;;;;;;3.73;2.43;;;;;;;;;;5016760;28;20974;-90
2022/02/18 09:32:28;;;;;;;6.40;4.17;;;11.80;99.90;;;;;;5016938;28;20460;-91
2022/02/18 09:34:56;;;;;;;3.03;2.73;;;;;;;;;;5012715;28;20436;-91
2022/02/18 09:37:24;;;;;;;2.07;1.07;;;;;;;;;;5012302;28;20456;-89
2022/02/18 09:39:51;;;;;;;4.90;3.30;;;;;;;;;;5013033;28;20456;-88
2022/02/18 09:42:20;;;;;;;4.37;2.87;;;13.80;99.90;;;;;;5013263;28;20527;-88
2022/02/18 09:44:49;;;;;;;2.73;1.43;;;13.90;99.90;;;;;;5013406;28;20452;-92
2022/02/18 09:47:16;;;;;;;10.73;6.90;;;;;;;;;;5014130;28;20480;-88
2022/02/18 09:49:45;;;;;;;8.53;4.73;;;13.50;99.90;;;;;;5013431;28;20959;-89
2022/02/18 09:52:13;;;;;;;5.53;1.90;;;13.40;99.90;;;;;;5012737;28;20460;-91
2022/02/18 09:54:40;;;;;;;3.13;2.47;;;;;;;;;;5014147;28;20579;-91
2022/02/18 09:57:08;;;;;;;5.03;3.47;;;;;;;;;;5016399;28;20448;-95
2022/02/18 09:59:35;;;;;;;3.10;1.30;;;14.50;99.90;;;;;;5020572;28;20467;-91
2022/02/18 10:02:04;;;;;;;1.20;0.70;;;;;;;;;;5016959;28;20441;-93
2022/02/18 10:04:31;;;;;;;0.70;0.50;;;;;;;;;;5021139;28;20456;-91
2022/02/18 10:07:02;;;;;;;2.03;0.60;;;13.90;99.90;;;;;;5017731;28;20460;-92
2022/02/18 10:09:39;;;;;;;1.80;0.50;;;;;;;;;;5018602;28;20936;-92
2022/02/18 10:12:06;;;;;;;0.60;0.40;;;;;;;;;;5020197;28;20467;-89
2022/02/18 10:14:53;;;;;;;2.40;0.87;;;14.10;99.90;;;;;;5018753;28;20444;-91
2022/02/18 10:17:21;;;;;;;5.90;1.37;;;;;;;;;;5017876;28;20451;-91
2022/02/18 10:19:51;;;;;;;0.67;0.50;;;15.20;99.90;;;;;;5016492;28;20452;-91
2022/02/18 10:22:25;;;;;;;1.70;0.50;;;;;;;;;;5017144;28;20440;-92
2022/02/18 10:24:52;;;;;;;2.70;0.70;;;;;;;;;;5032236;28;20511;-93
2022/02/18 10:27:24;;;;;;;3.20;1.40;;;15.00;99.90;;;;;;5040442;28;20480;-91
2022/02/18 10:29:58;;;;;;;0.60;0.50;;;;;;;;;;5018133;28;20964;-92
2022/02/18 10:32:25;;;;;;;1.00;0.40;;;;;;;;;;5018054;28;20870;-92
2022/02/18 10:34:53;;;;;;;2.00;0.60;;;14.60;99.90;;;;;;5020337;28;20809;-92
2022/02/18 10:37:21;;;;;;;2.80;0.80;;;;;;;;;;5016533;28;20945;-92
2022/02/18 10:39:50;;;;;;;1.13;0.50;;;;;;;;;;5019118;28;20445;-92
2022/02/18 10:42:24;;;;;;;7.00;0.70;;;14.50;99.90;;;;;;5019832;28;20432;-92
2022/02/18 10:45:08;;;;;;;1.53;0.40;;;15.00;99.90;;;;;;5019898;28;21001;-91
2022/02/18 10:47:35;;;;;;;2.10;0.80;;;;;;;;;;5021543;28;20503;-91
2022/02/18 10:50:02;;;;;;;1.00;0.30;;;;;;;;;;5017246;28;20801;-88
2022/02/18 10:52:29;;;;;;;0.70;0.50;;;;;;;;;;5014723;28;20472;-87
2022/02/18 10:55:07;;;;;;;0.90;0.50;;;15.90;99.90;;;;;;5016272;28;20460;-89
2022/02/18 10:57:34;;;;;;;2.00;0.70;;;;;;;;;;5016134;28;20448;-87
2022/02/18 11:00:13;;;;;;;0.80;0.30;;;15.80;99.90;;;;;;5014745;28;20452;-90
2022/02/18 11:02:41;;;;;;;2.60;0.53;;;15.50;99.90;;;;;;5015760;28;20955;-89
2022/02/18 11:05:25;;;;;;;1.57;0.30;;;15.80;99.90;;;;;;5015344;28;20452;-89
2022/02/18 11:07:53;;;;;;;1.23;0.50;;;;;;;;;;5013823;28;20904;-87
2022/02/18 11:10:31;;;;;;;0.87;0.43;;;16.00;99.90;;;;;;5015080;28;20460;-89
2022/02/18 11:12:59;;;;;;;1.17;0.30;;;;;;;;;;5015659;28;20455;-88
2022/02/18 11:15:27;;;;;;;4.10;0.53;;;15.90;99.90;;;;;;5015884;28;20455;-94
2022/02/18 11:17:55;;;;;;;0.87;0.40;;;;;;;;;;5015974;28;20791;-88
2022/02/18 11:20:25;;;;;;;1.07;0.40;;;;;;;;;;5014828;28;20466;-89
2022/02/18 11:22:53;;;;;;;1.73;0.50;;;15.30;99.90;;;;;;5015392;28;20462;-87
2022/02/18 11:25:21;;;;;;;1.40;0.50;;;;;;;;;;5014854;28;20459;-89
2022/02/18 11:27:49;;;;;;;1.87;0.70;;;14.90;99.90;;;;;;5015335;28;20507;-88
2022/02/18 11:30:16;;;;;;;1.37;0.40;;;;;;;;;;5015048;28;20452;-88
2022/02/18 11:32:55;;;;;;;3.00;0.80;;;14.90;99.90;;;;;;5016027;28;20808;-90
2022/02/18 11:35:37;;;;;;;4.53;0.60;;;14.90;99.90;;;;;;5014650;28;20834;-87
2022/02/18 11:38:22;;;;;;;2.10;0.70;;;15.40;99.90;;;;;;5015410;28;20468;-89
2022/02/18 11:40:59;;;;;;;11.07;5.00;;;15.20;99.90;;;;;;5015147;28;20444;-91
2022/02/18 11:43:29;;;;;;;1.90;0.70;;;15.40;99.90;;;;;;5014904;28;20822;-87
2022/02/18 11:45:58;;;;;;;2.67;0.87;;;16.00;99.90;;;;;;5014924;28;20444;-91
2022/02/18 11:48:42;;;;;;;0.83;0.50;;;15.50;99.90;;;;;;5014887;28;20488;-88
2022/02/18 11:51:10;;;;;;;1.03;0.40;;;15.60;99.90;;;;;;5013807;28;20452;-91
2022/02/18 11:53:42;;;;;;;4.63;0.80;;;15.60;99.90;;;;;;5014547;28;20484;-87
2022/02/18 11:56:09;;;;;;;1.17;0.50;;;;;;;;;;5014893;28;20456;-89
2022/02/18 11:58:53;;;;;;;1.70;0.77;;;15.60;99.90;;;;;;5014638;28;20544;-87
2022/02/18 12:01:20;;;;;;;4.93;0.90;;;;;;;;;;5014514;28;20544;-87
2022/02/18 12:04:16;;;;;;;0.97;0.70;;;15.50;99.90;;;;;;5014421;28;20461;-88
2022/02/18 12:06:43;;;;;;;1.00;0.83;;;;;;;;;;5013516;28;20456;-86
2022/02/18 12:09:10;;;;;;;2.07;1.07;;;;;;;;;;5014435;28;20515;-89
2022/02/18 12:11:44;;;;;;;3.13;1.40;;;15.60;99.90;;;;;;5014329;28;20455;-85
2022/02/18 12:14:13;;;;;;;5.60;0.60;;;15.30;99.90;;;;;;5014470;28;20927;-86
2022/02/18 12:16:41;;;;;;;2.03;1.40;;;15.30;99.90;;;;;;5014125;28;20436;-88
2022/02/18 12:19:14;;;;;;;5.03;0.67;;;15.50;99.90;;;;;;5014475;28;20436;-85
2022/02/18 12:22:02;;;;;;;0.70;0.60;;;15.40;99.90;;;;;;5012326;28;20453;-88
2022/02/18 12:24:43;;;;;;;1.93;0.50;;;15.10;99.90;;;;;;5014243;28;20444;-86
2022/02/18 12:27:32;;;;;;;3.63;2.00;;;15.20;99.90;;;;;;5012594;28;20451;-89
2022/02/18 12:30:20;;;;;;;1.93;1.17;;;15.10;99.90;;;;;;5013853;28;20496;-86
2022/02/18 12:32:47;;;;;;;1.80;0.90;;;;;;;;;;5014036;28;20452;-88
2022/02/18 12:35:17;;;;;;;3.33;1.13;;;;;;;;;;5013894;28;20990;-90
2022/02/18 12:37:44;;;;;;;0.50;0.40;;;;;;;;;;5013046;28;20452;-87
2022/02/18 12:40:15;;;;;;;1.83;0.30;;;15.10;99.90;;;;;;5013660;28;20440;-90
2022/02/18 12:42:42;;;;;;;1.30;0.53;;;;;;;;;;5013102;28;20821;-89
2022/02/18 12:45:12;;;;;;;2.90;0.60;;;15.00;99.90;;;;;;5014164;28;20950;-87
2022/02/18 12:47:44;;;;;;;0.87;0.57;;;14.90;99.90;;;;;;5015515;28;20455;-87
2022/02/18 12:50:12;;;;;;;1.33;0.47;;;14.90;99.90;;;;;;5014519;28;20448;-90
2022/02/18 12:52:41;;;;;;;1.80;0.50;;;15.00;99.90;;;;;;5012581;28;20499;-86
2022/02/18 12:55:11;;;;;;;2.30;0.50;;;12.20;99.90;;;;;;5013303;28;20463;-86
2022/02/18 12:57:39;;;;;;;5.03;0.60;;;15.10;99.90;;;;;;5012925;28;20472;-87
2022/02/18 13:00:09;;;;;;;0.87;0.40;;;14.90;99.90;;;;;;5013362;28;20460;-89
2022/02/18 13:02:41;;;;;;;0.60;0.30;;;14.90;99.90;;;;;;5014507;28;20912;-89
2022/02/18 13:05:10;;;;;;;22.97;4.50;;;14.90;99.90;;;;;;5013099;28;20444;-88
2022/02/18 13:07:37;;;;;;;2.80;2.10;;;;;;;;;;5012664;28;20535;-88
2022/02/18 13:10:07;;;;;;;5.20;1.60;;;15.00;99.90;;;;;;5011645;28;20453;-88
2022/02/18 13:12:34;;;;;;;0.77;0.50;;;;;;;;;;4994164;28;20842;-87
2022/02/18 13:15:06;;;;;;;1.33;0.50;;;14.90;99.90;;;;;;5016781;28;20980;-88
2022/02/18 13:17:33;;;;;;;1.17;0.47;;;;;;;;;;5033357;28;20809;-86
2022/02/18 13:20:02;;;;;;;0.70;0.40;;;14.90;99.90;;;;;;5024930;28;20456;-88
2022/02/18 13:22:35;;;;;;;1.90;0.73;;;14.90;99.90;;;;;;5008378;28;20514;-86
2022/02/18 13:25:21;;;;;;;3.90;1.77;;;15.00;99.90;;;;;;5012761;28;20986;-87
2022/02/18 13:27:48;;;;;;;0.50;0.30;;;;;;;;;;5013233;28;20452;-92
2022/02/18 13:30:19;;;;;;;2.40;1.23;;;14.90;99.90;;;;;;5010118;28;20869;-88
2022/02/18 13:32:46;;;;;;;2.00;0.40;;;;;;;;;;5013620;28;20448;-86
2022/02/18 13:35:20;;;;;;;1.50;0.67;;;;;;;;;;5017659;28;20475;-87
2022/02/18 13:37:47;;;;;;;1.23;0.70;;;;;;;;;;5016983;28;20882;-88
2022/02/18 13:40:15;;;;;;;0.77;0.50;;;;;;;;;;5017733;28;20482;-87
2022/02/18 13:42:51;;;;;;;0.80;0.60;;;14.50;99.90;;;;;;5017492;28;20606;-87
2022/02/18 13:45:18;;;;;;;1.77;0.83;;;;;;;;;;5017504;28;20443;-89
2022/02/18 13:47:45;;;;;;;3.57;3.27;;;;;;;;;;5016951;28;20447;-88
2022/02/18 13:50:13;;;;;;;5.70;0.73;;;14.60;99.90;;;;;;5016515;28;21022;-88
2022/02/18 13:52:42;;;;;;;2.50;0.60;;;14.60;99.90;;;;;;5015459;28;20484;-86
2022/02/18 13:55:11;;;;;;;4.80;0.80;;;;;;;;;;5016783;28;20991;-86
2022/02/18 13:57:39;;;;;;;2.83;2.20;;;;;;;;;;5016502;28;20547;-86
2022/02/18 14:00:10;;;;;;;2.30;0.90;;;14.60;99.90;;;;;;5016541;28;20459;-87
2022/02/18 14:02:47;;;;;;;4.83;0.90;;;14.60;99.90;;;;;;5012090;28;20460;-87
2022/02/18 14:05:26;;;;;;;2.20;0.50;;;14.70;99.90;;;;;;5016739;28;20440;-89